Morning Clara — 9V7564 — position and weather

sailwx.info

Track history (hours):
 
Tides and Currents Weather Stations Pressure Air Temp Water Temp Dewpoint Dewpoint Depression Visibility Wind Speed Wind Dir Waves Ship Positions

Morning Clara

Last reported at 2016-Apr-29 14:31 UTC. Time now 2016-May-03 20:12 UTC.
Position N 01°12' E 103°32'.

Length 200 m; draft 9.3 m.

Type: Cargo ship. MMSI: 564254000.

Date/timePositionNaut miles runAvg speedWind from/ knotsBaromVisibWave heightAir tempDewpointWater temp
2016-Apr-29 14:31N 01°12' E 103°32'1414.3
2016-Apr-29 13:34N 01°09' E 103°46'1212.3
2016-Apr-29 12:33N 01°14' E 103°57'9 8.8
2016-Apr-29 11:33N 01°18' E 104°05'1 0.2
2016-Apr-29 07:08N 01°18' E 104°04'0 0.1
2016-Apr-29 06:26N 01°18' E 104°04'0 0.0
2016-Apr-29 01:27N 01°18' E 104°04'  
2016-Apr-25 10:33N 22°33' E 119°55'  
2016-Apr-22 07:16N 36°32' E 123°54'1419.8
2016-Apr-22 06:33N 36°44' E 123°45'2120.3
2016-Apr-22 05:33N 37°03' E 123°35'2120.9
2016-Apr-22 04:33N 37°23' E 123°26'2220.9
2016-Apr-22 03:30N 37°42' E 123°13'1919.7
2016-Apr-22 02:33N 37°54' E 122°55'2719.1
2016-Apr-22 01:07N 38°08' E 122°25'1118.9
2016-Apr-22 00:32N 38°12' E 122°12'1818.9
2016-Apr-21 23:33N 38°17' E 121°49'1918.9
2016-Apr-21 22:33N 38°22' E 121°26'1414.0
2016-Apr-21 21:33N 38°27' E 121°09'1312.3
2016-Apr-21 20:32N 38°32' E 120°55'1414.7
2016-Apr-21 19:33N 38°35' E 120°37'1919.3
2016-Apr-21 18:34N 38°38' E 120°12'115 9.4
2016-Apr-21 06:19N 38°59' E 117°47'0 0.0
2016-Apr-21 04:19N 38°59' E 117°47'0 0.1
2016-Apr-21 03:33N 38°59' E 117°47'7 6.9
2016-Apr-21 02:33N 38°57' E 117°55'9 6.7
2016-Apr-21 01:11N 38°56' E 118°07'2 3.4
2016-Apr-21 00:32N 38°55' E 118°09'97 9.2
2016-Apr-20 14:05N 38°34' E 120°10'1316.1
2016-Apr-20 13:18N 38°22' E 120°16'1215.9
2016-Apr-20 12:33N 38°10' E 120°16'1615.7
2016-Apr-20 11:33N 37°55' E 120°14'1414.0
2016-Apr-20 10:33N 37°41' E 120°12'5 5.1
2016-Apr-20 09:32N 37°39' E 120°18'0 0.0
2016-Apr-20 08:32N 37°39' E 120°18'0 0.0
2016-Apr-20 07:29N 37°39' E 120°18'0 0.0
2016-Apr-20 06:32N 37°39' E 120°18'0 0.0
2016-Apr-20 05:26N 37°39' E 120°18'0 0.0
2016-Apr-20 04:32N 37°39' E 120°18'0 0.0
2016-Apr-20 03:32N 37°39' E 120°18'0 0.0
2016-Apr-20 02:33N 37°39' E 120°18'0 0.3
2016-Apr-20 01:33N 37°39' E 120°18'6 6.1
2016-Apr-20 00:33N 37°41' E 120°11'1 1.1
2016-Apr-19 23:34N 37°41' E 120°10'1 0.8
2016-Apr-19 22:21N 37°42' E 120°09'0 0.0
2016-Apr-19 20:33N 37°42' E 120°09'0 0.0
2016-Apr-19 19:33N 37°42' E 120°09'0 0.0
2016-Apr-19 18:33N 37°42' E 120°09'0 0.0
2016-Apr-19 17:10N 37°42' E 120°09'0 0.1
2016-Apr-19 16:30N 37°42' E 120°09'0 0.0
2016-Apr-19 15:33N 37°42' E 120°09'0 0.0
2016-Apr-19 14:34N 37°42' E 120°09'  
Track history (hours):
 
Tides and Currents Weather Stations Pressure Air Temp Water Temp Dewpoint Dewpoint Depression Visibility Wind Speed Wind Dir Waves Ship Positions

Morning Clara

Last reported at 2016-Apr-29 14:31 UTC. Time now 2016-May-03 20:12 UTC.
Position N 01°12' E 103°32'.

Length 200 m; draft 9.3 m.

Type: Cargo ship. MMSI: 564254000.

Date/timePositionNaut miles runAvg speedWind from/ knotsBaromVisibWave heightAir tempDewpointWater temp
2016-Apr-29 14:31N 01°12' E 103°32'1414.3
2016-Apr-29 13:34N 01°09' E 103°46'1212.3
2016-Apr-29 12:33N 01°14' E 103°57'9 8.8
2016-Apr-29 11:33N 01°18' E 104°05'1 0.2
2016-Apr-29 07:08N 01°18' E 104°04'0 0.1
2016-Apr-29 06:26N 01°18' E 104°04'0 0.0
2016-Apr-29 01:27N 01°18' E 104°04'  
2016-Apr-25 10:33N 22°33' E 119°55'  
2016-Apr-22 07:16N 36°32' E 123°54'1419.8
2016-Apr-22 06:33N 36°44' E 123°45'2120.3
2016-Apr-22 05:33N 37°03' E 123°35'2120.9
2016-Apr-22 04:33N 37°23' E 123°26'2220.9
2016-Apr-22 03:30N 37°42' E 123°13'1919.7
2016-Apr-22 02:33N 37°54' E 122°55'2719.1
2016-Apr-22 01:07N 38°08' E 122°25'1118.9
2016-Apr-22 00:32N 38°12' E 122°12'1818.9
2016-Apr-21 23:33N 38°17' E 121°49'1918.9
2016-Apr-21 22:33N 38°22' E 121°26'1414.0
2016-Apr-21 21:33N 38°27' E 121°09'1312.3
2016-Apr-21 20:32N 38°32' E 120°55'1414.7
2016-Apr-21 19:33N 38°35' E 120°37'1919.3
2016-Apr-21 18:34N 38°38' E 120°12'115 9.4
2016-Apr-21 06:19N 38°59' E 117°47'0 0.0
2016-Apr-21 04:19N 38°59' E 117°47'0 0.1
2016-Apr-21 03:33N 38°59' E 117°47'7 6.9
2016-Apr-21 02:33N 38°57' E 117°55'9 6.7
2016-Apr-21 01:11N 38°56' E 118°07'2 3.4
2016-Apr-21 00:32N 38°55' E 118°09'97 9.2
2016-Apr-20 14:05N 38°34' E 120°10'1316.1
2016-Apr-20 13:18N 38°22' E 120°16'1215.9
2016-Apr-20 12:33N 38°10' E 120°16'1615.7
2016-Apr-20 11:33N 37°55' E 120°14'1414.0
2016-Apr-20 10:33N 37°41' E 120°12'5 5.1
2016-Apr-20 09:32N 37°39' E 120°18'0 0.0
2016-Apr-20 08:32N 37°39' E 120°18'0 0.0
2016-Apr-20 07:29N 37°39' E 120°18'0 0.0
2016-Apr-20 06:32N 37°39' E 120°18'0 0.0
2016-Apr-20 05:26N 37°39' E 120°18'0 0.0
2016-Apr-20 04:32N 37°39' E 120°18'0 0.0
2016-Apr-20 03:32N 37°39' E 120°18'0 0.0
2016-Apr-20 02:33N 37°39' E 120°18'0 0.3
2016-Apr-20 01:33N 37°39' E 120°18'6 6.1
2016-Apr-20 00:33N 37°41' E 120°11'1 1.1
2016-Apr-19 23:34N 37°41' E 120°10'1 0.8
2016-Apr-19 22:21N 37°42' E 120°09'0 0.0
2016-Apr-19 20:33N 37°42' E 120°09'0 0.0
2016-Apr-19 19:33N 37°42' E 120°09'0 0.0
2016-Apr-19 18:33N 37°42' E 120°09'0 0.0
2016-Apr-19 17:10N 37°42' E 120°09'0 0.1
2016-Apr-19 16:30N 37°42' E 120°09'0 0.0
2016-Apr-19 15:33N 37°42' E 120°09'0 0.0
2016-Apr-19 14:34N 37°42' E 120°09'  

Dump ship's entire track history